sensor_id;sensor_type;location;lat;lon;timestamp;P1;durP1;ratioP1;P2;durP2;ratioP2
49934;SDS011;39898;41.762;26.200;2023-04-03T00:01:22;10.32;;;3.80;;
49934;SDS011;39898;41.762;26.200;2023-04-03T00:03:49;9.82;;;4.20;;
49934;SDS011;39898;41.762;26.200;2023-04-03T00:06:16;9.40;;;4.10;;
49934;SDS011;39898;41.762;26.200;2023-04-03T00:08:43;8.10;;;3.28;;
49934;SDS011;39898;41.762;26.200;2023-04-03T00:11:09;9.82;;;3.95;;
49934;SDS011;39898;41.762;26.200;2023-04-03T00:13:36;9.75;;;3.40;;
49934;SDS011;39898;41.762;26.200;2023-04-03T00:16:03;8.23;;;3.70;;
49934;SDS011;39898;41.762;26.200;2023-04-03T00:18:29;8.55;;;5.00;;
49934;SDS011;39898;41.762;26.200;2023-04-03T00:20:56;12.82;;;5.38;;
49934;SDS011;39898;41.762;26.200;2023-04-03T00:23:22;15.32;;;6.35;;
49934;SDS011;39898;41.762;26.200;2023-04-03T00:25:50;10.63;;;4.87;;
49934;SDS011;39898;41.762;26.200;2023-04-03T00:28:16;12.35;;;5.00;;
49934;SDS011;39898;41.762;26.200;2023-04-03T00:30:43;10.20;;;5.03;;
49934;SDS011;39898;41.762;26.200;2023-04-03T00:33:11;9.43;;;5.38;;
49934;SDS011;39898;41.762;26.200;2023-04-03T00:35:38;10.52;;;5.25;;
49934;SDS011;39898;41.762;26.200;2023-04-03T00:38:05;10.07;;;5.07;;
49934;SDS011;39898;41.762;26.200;2023-04-03T00:40:39;11.90;;;5.05;;
49934;SDS011;39898;41.762;26.200;2023-04-03T00:43:12;13.38;;;5.18;;
49934;SDS011;39898;41.762;26.200;2023-04-03T00:45:40;19.90;;;6.15;;
49934;SDS011;39898;41.762;26.200;2023-04-03T00:48:10;7.53;;;3.97;;
49934;SDS011;39898;41.762;26.200;2023-04-03T00:50:39;13.80;;;4.78;;
49934;SDS011;39898;41.762;26.200;2023-04-03T00:53:06;16.08;;;5.65;;
49934;SDS011;39898;41.762;26.200;2023-04-03T00:55:34;19.20;;;7.82;;
49934;SDS011;39898;41.762;26.200;2023-04-03T00:58:03;16.98;;;9.48;;
49934;SDS011;39898;41.762;26.200;2023-04-03T01:00:29;15.45;;;9.95;;
49934;SDS011;39898;41.762;26.200;2023-04-03T01:02:56;20.48;;;11.48;;
49934;SDS011;39898;41.762;26.200;2023-04-03T01:05:23;27.15;;;11.77;;
49934;SDS011;39898;41.762;26.200;2023-04-03T01:07:49;21.92;;;11.60;;
49934;SDS011;39898;41.762;26.200;2023-04-03T01:10:17;20.73;;;9.30;;
49934;SDS011;39898;41.762;26.200;2023-04-03T01:12:47;22.52;;;8.32;;
49934;SDS011;39898;41.762;26.200;2023-04-03T01:15:15;14.68;;;6.32;;
49934;SDS011;39898;41.762;26.200;2023-04-03T01:17:46;16.90;;;6.95;;
49934;SDS011;39898;41.762;26.200;2023-04-03T01:25:26;12.18;;;6.20;;
49934;SDS011;39898;41.762;26.200;2023-04-03T01:27:53;18.98;;;6.13;;
49934;SDS011;39898;41.762;26.200;2023-04-03T01:30:20;12.85;;;6.00;;
49934;SDS011;39898;41.762;26.200;2023-04-03T01:32:47;13.68;;;6.22;;
49934;SDS011;39898;41.762;26.200;2023-04-03T01:35:14;11.88;;;5.43;;
49934;SDS011;39898;41.762;26.200;2023-04-03T01:37:40;12.15;;;5.82;;
49934;SDS011;39898;41.762;26.200;2023-04-03T01:40:07;14.35;;;6.20;;
49934;SDS011;39898;41.762;26.200;2023-04-03T01:42:34;14.63;;;5.75;;
49934;SDS011;39898;41.762;26.200;2023-04-03T01:45:01;11.85;;;4.72;;
49934;SDS011;39898;41.762;26.200;2023-04-03T01:47:27;15.18;;;5.30;;
49934;SDS011;39898;41.762;26.200;2023-04-03T01:49:54;11.65;;;5.07;;
49934;SDS011;39898;41.762;26.200;2023-04-03T01:52:20;13.50;;;4.40;;
49934;SDS011;39898;41.762;26.200;2023-04-03T01:54:47;14.98;;;3.97;;
49934;SDS011;39898;41.762;26.200;2023-04-03T01:57:14;8.80;;;4.13;;
49934;SDS011;39898;41.762;26.200;2023-04-03T01:59:41;12.73;;;4.90;;
49934;SDS011;39898;41.762;26.200;2023-04-03T02:02:08;12.25;;;4.45;;
49934;SDS011;39898;41.762;26.200;2023-04-03T02:04:34;10.13;;;4.32;;
49934;SDS011;39898;41.762;26.200;2023-04-03T02:07:01;10.10;;;4.85;;
49934;SDS011;39898;41.762;26.200;2023-04-03T02:09:27;12.45;;;3.92;;
49934;SDS011;39898;41.762;26.200;2023-04-03T02:11:54;17.92;;;3.97;;
49934;SDS011;39898;41.762;26.200;2023-04-03T02:14:20;10.05;;;4.07;;
49934;SDS011;39898;41.762;26.200;2023-04-03T02:16:48;8.07;;;3.93;;
49934;SDS011;39898;41.762;26.200;2023-04-03T02:19:14;16.77;;;4.60;;
49934;SDS011;39898;41.762;26.200;2023-04-03T02:21:41;7.63;;;4.20;;
49934;SDS011;39898;41.762;26.200;2023-04-03T02:24:07;9.07;;;4.25;;
49934;SDS011;39898;41.762;26.200;2023-04-03T02:26:34;7.75;;;4.53;;
49934;SDS011;39898;41.762;26.200;2023-04-03T02:29:01;11.70;;;4.35;;
49934;SDS011;39898;41.762;26.200;2023-04-03T02:31:27;10.50;;;5.32;;
49934;SDS011;39898;41.762;26.200;2023-04-03T02:33:54;11.63;;;4.65;;
49934;SDS011;39898;41.762;26.200;2023-04-03T02:36:21;13.75;;;5.05;;
49934;SDS011;39898;41.762;26.200;2023-04-03T02:38:47;13.30;;;5.32;;
49934;SDS011;39898;41.762;26.200;2023-04-03T02:41:14;11.02;;;4.68;;
49934;SDS011;39898;41.762;26.200;2023-04-03T02:43:41;8.52;;;4.53;;
49934;SDS011;39898;41.762;26.200;2023-04-03T02:46:07;16.27;;;5.07;;
49934;SDS011;39898;41.762;26.200;2023-04-03T02:48:34;17.27;;;4.45;;
49934;SDS011;39898;41.762;26.200;2023-04-03T02:51:01;6.27;;;3.20;;
49934;SDS011;39898;41.762;26.200;2023-04-03T02:53:28;17.15;;;4.30;;
49934;SDS011;39898;41.762;26.200;2023-04-03T02:55:55;14.45;;;5.10;;
49934;SDS011;39898;41.762;26.200;2023-04-03T02:58:21;10.15;;;4.03;;
49934;SDS011;39898;41.762;26.200;2023-04-03T03:00:48;13.43;;;4.47;;
49934;SDS011;39898;41.762;26.200;2023-04-03T03:03:14;13.98;;;4.40;;
49934;SDS011;39898;41.762;26.200;2023-04-03T03:05:41;14.15;;;5.35;;
49934;SDS011;39898;41.762;26.200;2023-04-03T03:08:07;11.38;;;5.45;;
49934;SDS011;39898;41.762;26.200;2023-04-03T03:10:34;12.95;;;5.00;;
49934;SDS011;39898;41.762;26.200;2023-04-03T03:13:01;9.32;;;5.15;;
49934;SDS011;39898;41.762;26.200;2023-04-03T03:15:27;17.10;;;5.40;;
49934;SDS011;39898;41.762;26.200;2023-04-03T03:17:54;16.63;;;5.57;;
49934;SDS011;39898;41.762;26.200;2023-04-03T03:20:21;12.77;;;5.68;;
49934;SDS011;39898;41.762;26.200;2023-04-03T03:22:47;14.63;;;6.50;;
49934;SDS011;39898;41.762;26.200;2023-04-03T03:25:14;11.63;;;6.40;;
49934;SDS011;39898;41.762;26.200;2023-04-03T03:27:40;17.42;;;6.40;;
49934;SDS011;39898;41.762;26.200;2023-04-03T03:30:07;12.25;;;6.20;;
49934;SDS011;39898;41.762;26.200;2023-04-03T03:32:33;15.88;;;6.78;;
49934;SDS011;39898;41.762;26.200;2023-04-03T03:35:00;13.65;;;6.15;;
49934;SDS011;39898;41.762;26.200;2023-04-03T03:37:27;15.52;;;6.22;;
49934;SDS011;39898;41.762;26.200;2023-04-03T03:39:53;14.38;;;6.20;;
49934;SDS011;39898;41.762;26.200;2023-04-03T03:42:20;14.88;;;7.53;;
49934;SDS011;39898;41.762;26.200;2023-04-03T03:44:47;11.60;;;7.20;;
49934;SDS011;39898;41.762;26.200;2023-04-03T03:47:13;22.05;;;7.50;;
49934;SDS011;39898;41.762;26.200;2023-04-03T03:49:40;16.40;;;6.82;;
49934;SDS011;39898;41.762;26.200;2023-04-03T03:52:07;18.45;;;9.90;;
49934;SDS011;39898;41.762;26.200;2023-04-03T03:54:37;20.50;;;12.65;;
49934;SDS011;39898;41.762;26.200;2023-04-03T03:57:04;24.93;;;11.57;;
49934;SDS011;39898;41.762;26.200;2023-04-03T03:59:30;16.88;;;10.18;;
49934;SDS011;39898;41.762;26.200;2023-04-03T04:01:57;19.77;;;10.82;;
49934;SDS011;39898;41.762;26.200;2023-04-03T04:04:23;21.42;;;11.27;;
49934;SDS011;39898;41.762;26.200;2023-04-03T04:06:50;18.30;;;9.93;;
49934;SDS011;39898;41.762;26.200;2023-04-03T04:09:18;18.95;;;10.07;;
49934;SDS011;39898;41.762;26.200;2023-04-03T04:11:44;20.98;;;10.40;;
49934;SDS011;39898;41.762;26.200;2023-04-03T04:14:11;19.20;;;8.90;;
49934;SDS011;39898;41.762;26.200;2023-04-03T04:19:06;18.02;;;9.07;;
49934;SDS011;39898;41.762;26.200;2023-04-03T04:21:34;16.02;;;8.95;;
49934;SDS011;39898;41.762;26.200;2023-04-03T04:24:00;19.00;;;8.32;;
49934;SDS011;39898;41.762;26.200;2023-04-03T04:26:27;18.80;;;8.60;;
49934;SDS011;39898;41.762;26.200;2023-04-03T04:28:54;21.88;;;8.68;;
49934;SDS011;39898;41.762;26.200;2023-04-03T04:31:20;20.10;;;8.13;;
49934;SDS011;39898;41.762;26.200;2023-04-03T04:33:47;20.15;;;8.32;;
49934;SDS011;39898;41.762;26.200;2023-04-03T04:36:13;13.95;;;8.43;;
49934;SDS011;39898;41.762;26.200;2023-04-03T04:38:41;14.38;;;6.80;;
49934;SDS011;39898;41.762;26.200;2023-04-03T04:41:07;11.55;;;6.43;;
49934;SDS011;39898;41.762;26.200;2023-04-03T04:43:34;17.75;;;6.55;;
49934;SDS011;39898;41.762;26.200;2023-04-03T04:46:05;9.75;;;6.28;;
49934;SDS011;39898;41.762;26.200;2023-04-03T04:48:32;15.45;;;6.32;;
49934;SDS011;39898;41.762;26.200;2023-04-03T04:50:58;19.92;;;6.43;;
49934;SDS011;39898;41.762;26.200;2023-04-03T04:53:25;14.73;;;6.90;;
49934;SDS011;39898;41.762;26.200;2023-04-03T04:55:52;24.90;;;7.07;;
49934;SDS011;39898;41.762;26.200;2023-04-03T04:58:19;11.15;;;7.15;;
49934;SDS011;39898;41.762;26.200;2023-04-03T05:00:46;19.58;;;8.57;;
49934;SDS011;39898;41.762;26.200;2023-04-03T05:03:13;25.98;;;8.98;;
49934;SDS011;39898;41.762;26.200;2023-04-03T05:05:40;20.80;;;9.10;;
49934;SDS011;39898;41.762;26.200;2023-04-03T05:08:07;24.05;;;10.60;;
49934;SDS011;39898;41.762;26.200;2023-04-03T05:10:34;31.50;;;10.80;;
49934;SDS011;39898;41.762;26.200;2023-04-03T05:13:01;18.83;;;9.98;;
49934;SDS011;39898;41.762;26.200;2023-04-03T05:15:27;22.85;;;9.65;;
49934;SDS011;39898;41.762;26.200;2023-04-03T05:17:54;23.77;;;10.27;;
49934;SDS011;39898;41.762;26.200;2023-04-03T05:20:21;18.80;;;9.63;;
49934;SDS011;39898;41.762;26.200;2023-04-03T05:22:47;23.50;;;10.88;;
49934;SDS011;39898;41.762;26.200;2023-04-03T05:25:14;23.38;;;11.20;;
49934;SDS011;39898;41.762;26.200;2023-04-03T05:27:40;23.70;;;12.18;;
49934;SDS011;39898;41.762;26.200;2023-04-03T05:30:07;21.40;;;10.55;;
49934;SDS011;39898;41.762;26.200;2023-04-03T05:32:34;21.08;;;11.23;;
49934;SDS011;39898;41.762;26.200;2023-04-03T05:35:01;27.13;;;11.57;;
49934;SDS011;39898;41.762;26.200;2023-04-03T05:37:27;24.73;;;11.50;;
49934;SDS011;39898;41.762;26.200;2023-04-03T05:39:54;29.98;;;11.95;;
49934;SDS011;39898;41.762;26.200;2023-04-03T05:42:20;30.75;;;12.65;;
49934;SDS011;39898;41.762;26.200;2023-04-03T05:44:47;24.10;;;12.80;;
49934;SDS011;39898;41.762;26.200;2023-04-03T05:47:15;27.48;;;11.93;;
49934;SDS011;39898;41.762;26.200;2023-04-03T05:49:41;22.55;;;10.52;;
49934;SDS011;39898;41.762;26.200;2023-04-03T05:52:16;23.73;;;11.57;;
49934;SDS011;39898;41.762;26.200;2023-04-03T05:54:44;34.63;;;12.20;;
49934;SDS011;39898;41.762;26.200;2023-04-03T05:57:13;23.77;;;12.00;;
49934;SDS011;39898;41.762;26.200;2023-04-03T05:59:39;26.33;;;14.15;;
49934;SDS011;39898;41.762;26.200;2023-04-03T06:02:06;28.52;;;13.88;;
49934;SDS011;39898;41.762;26.200;2023-04-03T06:04:33;29.42;;;12.63;;
49934;SDS011;39898;41.762;26.200;2023-04-03T06:07:00;29.80;;;12.57;;
49934;SDS011;39898;41.762;26.200;2023-04-03T06:09:27;27.80;;;12.68;;
49934;SDS011;39898;41.762;26.200;2023-04-03T06:11:55;31.42;;;11.85;;
49934;SDS011;39898;41.762;26.200;2023-04-03T06:14:22;22.60;;;11.00;;
49934;SDS011;39898;41.762;26.200;2023-04-03T06:16:48;21.17;;;10.27;;
49934;SDS011;39898;41.762;26.200;2023-04-03T06:19:15;22.63;;;10.55;;
49934;SDS011;39898;41.762;26.200;2023-04-03T06:21:42;21.23;;;10.55;;
49934;SDS011;39898;41.762;26.200;2023-04-03T06:24:09;20.25;;;9.77;;
49934;SDS011;39898;41.762;26.200;2023-04-03T06:26:36;26.17;;;10.10;;
49934;SDS011;39898;41.762;26.200;2023-04-03T06:29:02;19.20;;;9.25;;
49934;SDS011;39898;41.762;26.200;2023-04-03T06:31:29;16.88;;;8.20;;
49934;SDS011;39898;41.762;26.200;2023-04-03T06:33:56;14.45;;;8.10;;
49934;SDS011;39898;41.762;26.200;2023-04-03T06:36:23;14.40;;;7.70;;
49934;SDS011;39898;41.762;26.200;2023-04-03T06:38:50;14.82;;;8.25;;
49934;SDS011;39898;41.762;26.200;2023-04-03T06:41:16;14.23;;;7.22;;
49934;SDS011;39898;41.762;26.200;2023-04-03T06:43:44;22.90;;;9.10;;
49934;SDS011;39898;41.762;26.200;2023-04-03T06:46:12;18.92;;;9.88;;
49934;SDS011;39898;41.762;26.200;2023-04-03T06:48:39;21.38;;;10.07;;
49934;SDS011;39898;41.762;26.200;2023-04-03T06:51:06;18.10;;;9.88;;
49934;SDS011;39898;41.762;26.200;2023-04-03T06:53:33;18.35;;;9.45;;
49934;SDS011;39898;41.762;26.200;2023-04-03T06:55:59;20.58;;;9.52;;
49934;SDS011;39898;41.762;26.200;2023-04-03T06:58:26;16.15;;;9.80;;
49934;SDS011;39898;41.762;26.200;2023-04-03T07:00:52;22.27;;;12.30;;
49934;SDS011;39898;41.762;26.200;2023-04-03T07:03:19;16.40;;;9.93;;
49934;SDS011;39898;41.762;26.200;2023-04-03T07:05:45;27.27;;;10.30;;
49934;SDS011;39898;41.762;26.200;2023-04-03T07:08:12;26.20;;;8.50;;
49934;SDS011;39898;41.762;26.200;2023-04-03T07:10:38;19.90;;;8.48;;
49934;SDS011;39898;41.762;26.200;2023-04-03T07:13:05;23.88;;;8.95;;
49934;SDS011;39898;41.762;26.200;2023-04-03T07:15:31;20.65;;;7.32;;
49934;SDS011;39898;41.762;26.200;2023-04-03T07:17:58;15.75;;;8.38;;
49934;SDS011;39898;41.762;26.200;2023-04-03T07:20:24;17.33;;;7.82;;
49934;SDS011;39898;41.762;26.200;2023-04-03T07:22:51;15.02;;;7.10;;
49934;SDS011;39898;41.762;26.200;2023-04-03T07:25:17;22.13;;;8.48;;
49934;SDS011;39898;41.762;26.200;2023-04-03T07:27:44;23.92;;;10.80;;
49934;SDS011;39898;41.762;26.200;2023-04-03T07:30:10;32.15;;;12.93;;
49934;SDS011;39898;41.762;26.200;2023-04-03T07:32:37;37.75;;;12.07;;
49934;SDS011;39898;41.762;26.200;2023-04-03T07:35:04;32.28;;;13.20;;
49934;SDS011;39898;41.762;26.200;2023-04-03T07:37:30;34.25;;;13.88;;
49934;SDS011;39898;41.762;26.200;2023-04-03T07:39:58;26.70;;;10.23;;
49934;SDS011;39898;41.762;26.200;2023-04-03T07:42:25;45.50;;;16.27;;
49934;SDS011;39898;41.762;26.200;2023-04-03T07:44:54;34.50;;;14.98;;
49934;SDS011;39898;41.762;26.200;2023-04-03T07:47:20;44.42;;;17.23;;
49934;SDS011;39898;41.762;26.200;2023-04-03T07:49:47;40.28;;;16.83;;
49934;SDS011;39898;41.762;26.200;2023-04-03T07:52:14;39.92;;;15.52;;
49934;SDS011;39898;41.762;26.200;2023-04-03T07:54:41;46.35;;;18.05;;
49934;SDS011;39898;41.762;26.200;2023-04-03T07:57:08;38.40;;;16.73;;
49934;SDS011;39898;41.762;26.200;2023-04-03T07:59:35;43.25;;;19.05;;
49934;SDS011;39898;41.762;26.200;2023-04-03T08:02:01;45.65;;;17.13;;
49934;SDS011;39898;41.762;26.200;2023-04-03T08:04:31;50.45;;;18.55;;
49934;SDS011;39898;41.762;26.200;2023-04-03T08:06:57;48.17;;;21.50;;
49934;SDS011;39898;41.762;26.200;2023-04-03T08:09:24;54.85;;;24.00;;
49934;SDS011;39898;41.762;26.200;2023-04-03T08:11:50;43.78;;;18.80;;
49934;SDS011;39898;41.762;26.200;2023-04-03T08:14:19;48.50;;;20.83;;
49934;SDS011;39898;41.762;26.200;2023-04-03T08:16:46;47.53;;;19.05;;
49934;SDS011;39898;41.762;26.200;2023-04-03T08:19:14;64.05;;;24.50;;
49934;SDS011;39898;41.762;26.200;2023-04-03T08:21:51;52.13;;;20.83;;
49934;SDS011;39898;41.762;26.200;2023-04-03T08:24:18;53.05;;;20.65;;
49934;SDS011;39898;41.762;26.200;2023-04-03T08:26:44;46.88;;;19.63;;
49934;SDS011;39898;41.762;26.200;2023-04-03T08:29:11;51.10;;;20.35;;
49934;SDS011;39898;41.762;26.200;2023-04-03T08:31:37;45.17;;;20.73;;
49934;SDS011;39898;41.762;26.200;2023-04-03T08:34:05;57.33;;;21.77;;
49934;SDS011;39898;41.762;26.200;2023-04-03T08:36:31;69.43;;;20.10;;
49934;SDS011;39898;41.762;26.200;2023-04-03T08:38:58;60.50;;;21.73;;
49934;SDS011;39898;41.762;26.200;2023-04-03T08:46:32;47.38;;;20.50;;
49934;SDS011;39898;41.762;26.200;2023-04-03T08:49:02;72.95;;;32.30;;
49934;SDS011;39898;41.762;26.200;2023-04-03T08:51:31;90.38;;;43.20;;
49934;SDS011;39898;41.762;26.200;2023-04-03T08:54:00;64.13;;;27.17;;
49934;SDS011;39898;41.762;26.200;2023-04-03T08:56:29;67.78;;;26.88;;
49934;SDS011;39898;41.762;26.200;2023-04-03T08:59:06;54.83;;;23.45;;
49934;SDS011;39898;41.762;26.200;2023-04-03T09:01:36;54.13;;;21.48;;
49934;SDS011;39898;41.762;26.200;2023-04-03T09:04:11;64.47;;;24.08;;
49934;SDS011;39898;41.762;26.200;2023-04-03T09:06:39;57.67;;;24.05;;
49934;SDS011;39898;41.762;26.200;2023-04-03T09:11:56;72.38;;;25.48;;
49934;SDS011;39898;41.762;26.200;2023-04-03T09:16:59;67.38;;;26.45;;
49934;SDS011;39898;41.762;26.200;2023-04-03T09:22:07;70.32;;;27.23;;
49934;SDS011;39898;41.762;26.200;2023-04-03T09:24:37;59.83;;;25.77;;
49934;SDS011;39898;41.762;26.200;2023-04-03T09:27:04;61.22;;;26.48;;
49934;SDS011;39898;41.762;26.200;2023-04-03T09:29:32;69.63;;;26.05;;
49934;SDS011;39898;41.762;26.200;2023-04-03T09:32:02;63.35;;;26.05;;
49934;SDS011;39898;41.762;26.200;2023-04-03T09:34:36;63.72;;;25.92;;
49934;SDS011;39898;41.762;26.200;2023-04-03T09:37:03;73.32;;;28.85;;
49934;SDS011;39898;41.762;26.200;2023-04-03T09:39:33;72.00;;;26.92;;
49934;SDS011;39898;41.762;26.200;2023-04-03T09:44:44;73.03;;;28.67;;
49934;SDS011;39898;41.762;26.200;2023-04-03T09:49:45;76.10;;;32.20;;
49934;SDS011;39898;41.762;26.200;2023-04-03T09:52:24;104.30;;;41.47;;
49934;SDS011;39898;41.762;26.200;2023-04-03T09:54:51;100.65;;;41.03;;
49934;SDS011;39898;41.762;26.200;2023-04-03T09:57:17;174.88;;;73.10;;
49934;SDS011;39898;41.762;26.200;2023-04-03T09:59:56;92.88;;;34.85;;
49934;SDS011;39898;41.762;26.200;2023-04-03T10:02:35;91.43;;;37.38;;
49934;SDS011;39898;41.762;26.200;2023-04-03T10:05:03;87.18;;;30.58;;
49934;SDS011;39898;41.762;26.200;2023-04-03T10:07:34;92.15;;;31.80;;
49934;SDS011;39898;41.762;26.200;2023-04-03T10:10:14;72.85;;;29.70;;
49934;SDS011;39898;41.762;26.200;2023-04-03T10:12:42;82.53;;;31.13;;
49934;SDS011;39898;41.762;26.200;2023-04-03T10:15:15;76.20;;;28.77;;
49934;SDS011;39898;41.762;26.200;2023-04-03T10:18:06;70.85;;;30.23;;
49934;SDS011;39898;41.762;26.200;2023-04-03T10:20:49;99.45;;;30.38;;
49934;SDS011;39898;41.762;26.200;2023-04-03T10:23:21;77.32;;;29.90;;
49934;SDS011;39898;41.762;26.200;2023-04-03T10:31:03;79.28;;;30.65;;
49934;SDS011;39898;41.762;26.200;2023-04-03T10:36:21;88.10;;;30.77;;
49934;SDS011;39898;41.762;26.200;2023-04-03T10:46:28;78.30;;;29.73;;
49934;SDS011;39898;41.762;26.200;2023-04-03T10:51:47;66.82;;;28.02;;
49934;SDS011;39898;41.762;26.200;2023-04-03T10:54:32;68.47;;;27.92;;
49934;SDS011;39898;41.762;26.200;2023-04-03T10:57:01;81.60;;;28.80;;
49934;SDS011;39898;41.762;26.200;2023-04-03T11:04:42;50.78;;;23.88;;
49934;SDS011;39898;41.762;26.200;2023-04-03T11:07:15;45.45;;;21.60;;
49934;SDS011;39898;41.762;26.200;2023-04-03T11:09:44;50.20;;;20.75;;
49934;SDS011;39898;41.762;26.200;2023-04-03T11:12:14;49.90;;;20.60;;
49934;SDS011;39898;41.762;26.200;2023-04-03T11:14:43;73.20;;;26.60;;
49934;SDS011;39898;41.762;26.200;2023-04-03T11:19:51;46.20;;;24.13;;
49934;SDS011;39898;41.762;26.200;2023-04-03T11:22:22;36.90;;;16.50;;
49934;SDS011;39898;41.762;26.200;2023-04-03T11:25:02;32.33;;;16.67;;
49934;SDS011;39898;41.762;26.200;2023-04-03T11:27:30;30.00;;;15.27;;
49934;SDS011;39898;41.762;26.200;2023-04-03T11:30:00;28.33;;;12.43;;
49934;SDS011;39898;41.762;26.200;2023-04-03T11:34:54;31.85;;;12.95;;
49934;SDS011;39898;41.762;26.200;2023-04-03T11:40:06;28.70;;;13.02;;
49934;SDS011;39898;41.762;26.200;2023-04-03T11:42:39;31.13;;;12.23;;
49934;SDS011;39898;41.762;26.200;2023-04-03T11:45:16;19.90;;;9.57;;
49934;SDS011;39898;41.762;26.200;2023-04-03T11:47:47;31.75;;;13.10;;
49934;SDS011;39898;41.762;26.200;2023-04-03T12:13:42;25.52;;;11.75;;
49934;SDS011;39898;41.762;26.200;2023-04-03T12:16:28;20.85;;;9.60;;
49934;SDS011;39898;41.762;26.200;2023-04-03T12:26:25;25.95;;;10.20;;
49934;SDS011;39898;41.762;26.200;2023-04-03T12:29:10;19.02;;;7.85;;
49934;SDS011;39898;41.762;26.200;2023-04-03T12:31:42;14.63;;;10.18;;
49934;SDS011;39898;41.762;26.200;2023-04-03T12:34:15;19.23;;;9.32;;
49934;SDS011;39898;41.762;26.200;2023-04-03T12:39:13;12.48;;;7.18;;
49934;SDS011;39898;41.762;26.200;2023-04-03T12:46:42;19.45;;;7.25;;
49934;SDS011;39898;41.762;26.200;2023-04-03T12:49:33;22.33;;;8.65;;
49934;SDS011;39898;41.762;26.200;2023-04-03T12:51:56;23.40;;;7.68;;
49934;SDS011;39898;41.762;26.200;2023-04-03T12:54:30;16.73;;;8.55;;
49934;SDS011;39898;41.762;26.200;2023-04-03T12:59:43;18.35;;;7.60;;
49934;SDS011;39898;41.762;26.200;2023-04-03T13:02:22;197.65;;;97.95;;
49934;SDS011;39898;41.762;26.200;2023-04-03T13:04:54;26.20;;;10.60;;
49934;SDS011;39898;41.762;26.200;2023-04-03T13:07:21;52.13;;;24.02;;
49934;SDS011;39898;41.762;26.200;2023-04-03T13:09:55;47.42;;;23.58;;
49934;SDS011;39898;41.762;26.200;2023-04-03T13:12:22;44.95;;;21.80;;
49934;SDS011;39898;41.762;26.200;2023-04-03T13:14:52;38.22;;;17.13;;
49934;SDS011;39898;41.762;26.200;2023-04-03T13:17:20;34.08;;;13.90;;
49934;SDS011;39898;41.762;26.200;2023-04-03T13:19:47;25.37;;;9.33;;
49934;SDS011;39898;41.762;26.200;2023-04-03T13:24:41;28.40;;;13.88;;
49934;SDS011;39898;41.762;26.200;2023-04-03T13:27:10;59.17;;;25.35;;
49934;SDS011;39898;41.762;26.200;2023-04-03T13:29:37;20.65;;;6.50;;
49934;SDS011;39898;41.762;26.200;2023-04-03T13:32:05;24.10;;;11.15;;
49934;SDS011;39898;41.762;26.200;2023-04-03T13:34:40;34.97;;;19.05;;
49934;SDS011;39898;41.762;26.200;2023-04-03T13:37:19;22.50;;;9.65;;
49934;SDS011;39898;41.762;26.200;2023-04-03T13:39:46;39.13;;;19.43;;
49934;SDS011;39898;41.762;26.200;2023-04-03T13:42:23;23.00;;;11.73;;
49934;SDS011;39898;41.762;26.200;2023-04-03T13:45:06;27.63;;;14.85;;
49934;SDS011;39898;41.762;26.200;2023-04-03T13:47:38;16.13;;;7.53;;
49934;SDS011;39898;41.762;26.200;2023-04-03T13:52:40;17.30;;;7.80;;
49934;SDS011;39898;41.762;26.200;2023-04-03T13:55:26;20.55;;;9.73;;
49934;SDS011;39898;41.762;26.200;2023-04-03T13:57:56;28.73;;;10.05;;
49934;SDS011;39898;41.762;26.200;2023-04-03T14:00:36;12.35;;;6.13;;
49934;SDS011;39898;41.762;26.200;2023-04-03T14:03:24;15.23;;;6.93;;
49934;SDS011;39898;41.762;26.200;2023-04-03T14:05:51;19.38;;;7.95;;
49934;SDS011;39898;41.762;26.200;2023-04-03T14:08:18;26.73;;;11.43;;
49934;SDS011;39898;41.762;26.200;2023-04-03T14:10:57;49.47;;;21.25;;
49934;SDS011;39898;41.762;26.200;2023-04-03T14:13:24;24.48;;;10.27;;
49934;SDS011;39898;41.762;26.200;2023-04-03T14:15:51;24.88;;;11.27;;
49934;SDS011;39898;41.762;26.200;2023-04-03T14:18:19;30.52;;;13.93;;
49934;SDS011;39898;41.762;26.200;2023-04-03T14:20:47;36.40;;;13.70;;
49934;SDS011;39898;41.762;26.200;2023-04-03T14:23:14;67.30;;;29.65;;
49934;SDS011;39898;41.762;26.200;2023-04-03T14:25:41;53.72;;;19.80;;
49934;SDS011;39898;41.762;26.200;2023-04-03T14:28:21;54.70;;;24.20;;
49934;SDS011;39898;41.762;26.200;2023-04-03T14:30:49;50.03;;;23.42;;
49934;SDS011;39898;41.762;26.200;2023-04-03T14:35:42;20.98;;;8.30;;
49934;SDS011;39898;41.762;26.200;2023-04-03T14:38:18;18.08;;;6.40;;
49934;SDS011;39898;41.762;26.200;2023-04-03T14:40:46;20.00;;;9.25;;
49934;SDS011;39898;41.762;26.200;2023-04-03T14:43:13;21.30;;;9.32;;
49934;SDS011;39898;41.762;26.200;2023-04-03T14:45:39;43.45;;;20.17;;
49934;SDS011;39898;41.762;26.200;2023-04-03T14:48:06;33.60;;;15.25;;
49934;SDS011;39898;41.762;26.200;2023-04-03T14:50:36;33.45;;;13.07;;
49934;SDS011;39898;41.762;26.200;2023-04-03T14:53:03;45.05;;;12.75;;
49934;SDS011;39898;41.762;26.200;2023-04-03T14:55:30;29.25;;;12.52;;
49934;SDS011;39898;41.762;26.200;2023-04-03T14:57:58;20.48;;;9.35;;
49934;SDS011;39898;41.762;26.200;2023-04-03T15:00:24;25.75;;;12.15;;
49934;SDS011;39898;41.762;26.200;2023-04-03T15:02:51;29.58;;;15.57;;
49934;SDS011;39898;41.762;26.200;2023-04-03T15:05:18;45.40;;;19.15;;
49934;SDS011;39898;41.762;26.200;2023-04-03T15:07:49;19.45;;;8.25;;
49934;SDS011;39898;41.762;26.200;2023-04-03T15:10:21;22.25;;;9.38;;
49934;SDS011;39898;41.762;26.200;2023-04-03T15:12:48;32.35;;;11.70;;
49934;SDS011;39898;41.762;26.200;2023-04-03T15:15:15;29.58;;;9.27;;
49934;SDS011;39898;41.762;26.200;2023-04-03T15:17:42;18.23;;;8.13;;
49934;SDS011;39898;41.762;26.200;2023-04-03T15:20:12;18.20;;;5.45;;
49934;SDS011;39898;41.762;26.200;2023-04-03T15:22:40;17.08;;;7.00;;
49934;SDS011;39898;41.762;26.200;2023-04-03T15:25:06;20.70;;;5.47;;
49934;SDS011;39898;41.762;26.200;2023-04-03T15:27:33;29.17;;;13.32;;
49934;SDS011;39898;41.762;26.200;2023-04-03T15:30:00;27.52;;;13.75;;
49934;SDS011;39898;41.762;26.200;2023-04-03T15:32:26;27.50;;;12.07;;
49934;SDS011;39898;41.762;26.200;2023-04-03T15:34:57;28.85;;;11.20;;
49934;SDS011;39898;41.762;26.200;2023-04-03T15:37:24;16.38;;;7.90;;
49934;SDS011;39898;41.762;26.200;2023-04-03T15:39:51;34.08;;;17.95;;
49934;SDS011;39898;41.762;26.200;2023-04-03T15:42:18;42.28;;;20.38;;
49934;SDS011;39898;41.762;26.200;2023-04-03T15:44:44;37.53;;;17.77;;
49934;SDS011;39898;41.762;26.200;2023-04-03T15:47:11;36.67;;;11.43;;
49934;SDS011;39898;41.762;26.200;2023-04-03T15:49:38;58.58;;;20.85;;
49934;SDS011;39898;41.762;26.200;2023-04-03T15:52:05;53.50;;;25.08;;
49934;SDS011;39898;41.762;26.200;2023-04-03T15:54:31;33.33;;;12.68;;
49934;SDS011;39898;41.762;26.200;2023-04-03T15:56:58;32.53;;;12.00;;
49934;SDS011;39898;41.762;26.200;2023-04-03T15:59:25;29.55;;;15.00;;
49934;SDS011;39898;41.762;26.200;2023-04-03T16:01:51;25.42;;;10.45;;
49934;SDS011;39898;41.762;26.200;2023-04-03T16:04:19;27.88;;;14.35;;
49934;SDS011;39898;41.762;26.200;2023-04-03T16:06:47;30.70;;;13.50;;
49934;SDS011;39898;41.762;26.200;2023-04-03T16:09:13;21.58;;;9.25;;